createdAt,value
2022-10-04T00:02:31.593Z,9.80
2022-10-04T00:05:06.136Z,9.80
2022-10-04T00:07:38.490Z,9.80
2022-10-04T00:10:19.207Z,9.80
2022-10-04T00:12:49.754Z,9.80
2022-10-04T00:15:24.633Z,9.80
2022-10-04T00:18:07.585Z,9.80
2022-10-04T00:21:00.901Z,9.80
2022-10-04T00:23:41.237Z,9.80
2022-10-04T00:26:15.829Z,9.90
2022-10-04T00:28:45.891Z,9.90
2022-10-04T00:31:21.084Z,9.90
2022-10-04T00:33:51.751Z,9.80
2022-10-04T00:36:48.497Z,9.80
2022-10-04T00:39:27.962Z,9.80
2022-10-04T00:42:05.950Z,9.80
2022-10-04T00:44:42.765Z,9.80
2022-10-04T00:47:25.239Z,9.80
2022-10-04T00:49:59.659Z,9.80
2022-10-04T00:52:34.144Z,9.80
2022-10-04T00:55:07.763Z,9.80
2022-10-04T00:57:40.092Z,9.80
2022-10-04T01:00:12.939Z,9.80
2022-10-04T01:02:53.083Z,9.80
2022-10-04T01:05:26.622Z,9.80
2022-10-04T01:07:59.699Z,9.70
2022-10-04T01:10:32.589Z,9.80
2022-10-04T01:13:08.596Z,9.70
2022-10-04T01:15:44.068Z,9.70
2022-10-04T01:18:32.337Z,9.60
2022-10-04T01:21:04.692Z,9.60
2022-10-04T01:23:37.762Z,9.50
2022-10-04T01:26:07.611Z,9.60
2022-10-04T01:28:38.697Z,9.40
2022-10-04T01:31:07.215Z,9.40
2022-10-04T01:33:37.259Z,9.40
2022-10-04T01:36:05.883Z,9.30
2022-10-04T01:38:35.571Z,9.40
2022-10-04T01:41:06.465Z,9.50
2022-10-04T01:43:41.109Z,9.40
2022-10-04T01:46:13.571Z,9.50
2022-10-04T01:48:44.959Z,9.50
2022-10-04T01:51:19.623Z,9.50
2022-10-04T01:53:55.357Z,9.40
2022-10-04T01:56:27.402Z,9.40
2022-10-04T01:59:00.354Z,9.40
2022-10-04T02:01:32.868Z,9.40
2022-10-04T02:04:06.841Z,9.40
2022-10-04T02:06:39.207Z,9.30
2022-10-04T02:09:13.809Z,9.30
2022-10-04T02:11:43.911Z,9.30
2022-10-04T02:14:20.333Z,9.30
2022-10-04T02:16:54.008Z,9.30
2022-10-04T02:19:24.482Z,9.40
2022-10-04T02:21:53.445Z,9.30
2022-10-04T02:24:23.741Z,9.40
2022-10-04T02:26:52.482Z,9.40
2022-10-04T02:29:21.642Z,9.40
2022-10-04T02:32:10.109Z,9.40
2022-10-04T02:34:39.179Z,9.40
2022-10-04T02:37:08.476Z,9.40
2022-10-04T02:39:41.909Z,9.40
2022-10-04T02:42:15.756Z,9.40
2022-10-04T02:44:47.145Z,9.40
2022-10-04T02:47:21.803Z,9.40
2022-10-04T02:49:54.142Z,9.40
2022-10-04T02:52:29.257Z,9.40
2022-10-04T02:55:03.694Z,9.40
2022-10-04T02:57:35.115Z,9.40
2022-10-04T03:00:15.748Z,9.40
2022-10-04T03:03:04.900Z,9.40
2022-10-04T03:05:34.019Z,9.40
2022-10-04T03:08:02.911Z,9.40
2022-10-04T03:10:35.537Z,9.40
2022-10-04T03:13:04.391Z,9.40
2022-10-04T03:15:33.868Z,9.50
2022-10-04T03:18:02.436Z,9.50
2022-10-04T03:20:30.949Z,9.50
2022-10-04T03:22:59.467Z,9.50
2022-10-04T03:25:42.790Z,9.50
2022-10-04T03:28:11.191Z,9.50
2022-10-04T03:30:44.202Z,9.60
2022-10-04T03:33:28.888Z,9.50
2022-10-04T03:36:00.833Z,9.50
2022-10-04T03:38:30.460Z,9.60
2022-10-04T03:41:02.243Z,9.60
2022-10-04T03:43:32.506Z,9.60
2022-10-04T03:46:03.313Z,9.60
2022-10-04T03:48:34.513Z,9.60
2022-10-04T03:51:06.584Z,9.60
2022-10-04T03:53:43.266Z,9.60
2022-10-04T03:56:17.663Z,9.60
2022-10-04T03:58:49.377Z,9.60
2022-10-04T04:01:37.838Z,9.70
2022-10-04T04:04:18.515Z,9.60
2022-10-04T04:06:56.132Z,9.60
2022-10-04T04:09:30.405Z,9.60
2022-10-04T04:12:12.273Z,9.60
2022-10-04T04:14:42.214Z,9.60
2022-10-04T04:17:41.797Z,9.70
2022-10-04T04:20:26.637Z,9.70
2022-10-04T04:23:05.464Z,9.70
2022-10-04T04:25:39.406Z,9.70
2022-10-04T04:28:25.800Z,9.70
2022-10-04T04:30:59.213Z,9.70
2022-10-04T04:33:31.229Z,9.70
2022-10-04T04:36:06.454Z,9.70
2022-10-04T04:38:57.963Z,9.70
2022-10-04T04:41:28.130Z,9.70
2022-10-04T04:43:57.943Z,9.70
2022-10-04T04:46:27.945Z,9.80
2022-10-04T04:49:02.702Z,9.80
2022-10-04T04:51:33.861Z,9.80
2022-10-04T04:54:05.581Z,9.80
2022-10-04T04:56:34.542Z,9.70
2022-10-04T04:59:07.831Z,9.80
2022-10-04T05:01:45.235Z,9.70
2022-10-04T05:04:23.105Z,9.70
2022-10-04T05:07:05.200Z,9.70
2022-10-04T05:09:35.462Z,9.70
2022-10-04T05:12:10.041Z,9.70
2022-10-04T05:14:50.023Z,9.80
2022-10-04T05:17:21.780Z,9.80
2022-10-04T05:19:50.710Z,9.80
2022-10-04T05:22:23.371Z,9.70
2022-10-04T05:24:56.444Z,9.70
2022-10-04T05:27:30.397Z,9.80
2022-10-04T05:30:06.035Z,9.80
2022-10-04T05:32:45.559Z,9.80
2022-10-04T05:35:18.608Z,9.90
2022-10-04T05:37:58.356Z,9.90
2022-10-04T05:40:41.636Z,9.90
2022-10-04T05:43:31.221Z,10.00
2022-10-04T05:46:25.381Z,10.00
2022-10-04T05:48:56.422Z,10.10
2022-10-04T05:51:29.983Z,10.10
2022-10-04T05:54:02.395Z,10.20
2022-10-04T05:57:21.822Z,10.30
2022-10-04T06:00:06.798Z,10.30
2022-10-04T06:03:25.971Z,10.40
2022-10-04T06:05:57.720Z,10.40
2022-10-04T06:08:50.968Z,10.50
2022-10-04T06:11:40.828Z,10.50
2022-10-04T06:14:39.245Z,10.60
2022-10-04T06:17:23.902Z,10.60
2022-10-04T06:20:10.281Z,10.70
2022-10-04T06:22:45.915Z,10.80
2022-10-04T06:25:19.565Z,10.80
2022-10-04T06:27:57.387Z,10.80
2022-10-04T06:30:26.369Z,10.90
2022-10-04T06:33:21.396Z,10.90
2022-10-04T06:36:11.402Z,11.00
2022-10-04T06:39:13.975Z,11.00
2022-10-04T06:42:17.382Z,11.00
2022-10-04T06:45:13.396Z,11.00
2022-10-04T06:47:57.669Z,11.00
2022-10-04T06:50:41.915Z,11.10
2022-10-04T06:53:25.782Z,11.10
2022-10-04T06:56:25.044Z,11.10
2022-10-04T06:59:13.904Z,11.10
2022-10-04T07:01:51.532Z,11.10
2022-10-04T07:04:41.116Z,11.20
2022-10-04T07:07:27.231Z,11.20
2022-10-04T07:10:04.276Z,11.40
2022-10-04T07:12:34.946Z,11.40
2022-10-04T07:15:10.387Z,11.50
2022-10-04T07:17:42.814Z,11.50
2022-10-04T07:20:22.431Z,11.40
2022-10-04T07:22:57.833Z,11.50
2022-10-04T07:25:30.747Z,11.40
2022-10-04T07:28:22.119Z,11.40
2022-10-04T07:30:57.163Z,11.40
2022-10-04T07:33:29.002Z,11.40
2022-10-04T07:36:05.169Z,11.40
2022-10-04T07:38:39.815Z,11.40
2022-10-04T07:41:19.279Z,11.40
2022-10-04T07:43:52.673Z,11.50
2022-10-04T07:46:27.300Z,11.50
2022-10-04T07:48:56.047Z,11.60
2022-10-04T07:51:36.805Z,11.60
2022-10-04T07:54:14.598Z,11.70
2022-10-04T07:56:50.985Z,11.70
2022-10-04T07:59:41.701Z,11.70
2022-10-04T08:02:27.705Z,11.80
2022-10-04T08:05:07.217Z,11.80
2022-10-04T08:07:49.602Z,11.80
2022-10-04T08:10:27.168Z,11.80
2022-10-04T08:13:17.610Z,11.80
2022-10-04T08:15:46.836Z,11.80
2022-10-04T08:18:36.316Z,11.90
2022-10-04T08:21:08.000Z,12.00
2022-10-04T08:23:57.296Z,12.00
2022-10-04T08:26:50.948Z,12.20
2022-10-04T08:29:43.153Z,12.20
2022-10-04T08:32:24.378Z,12.20
2022-10-04T08:35:09.191Z,12.30
2022-10-04T08:37:54.075Z,12.40
2022-10-04T08:40:46.403Z,12.40
2022-10-04T08:43:52.603Z,12.40
2022-10-04T08:46:53.225Z,12.40
2022-10-04T08:49:58.107Z,12.50
2022-10-04T08:53:10.032Z,12.60
2022-10-04T08:55:58.535Z,12.80
2022-10-04T08:59:12.055Z,13.00
2022-10-04T09:02:34.336Z,13.00
2022-10-04T09:05:27.735Z,13.10
2022-10-04T09:08:27.255Z,13.10
2022-10-04T09:11:23.582Z,13.10
2022-10-04T09:14:11.099Z,13.20
2022-10-04T09:16:47.647Z,13.30
2022-10-04T09:19:31.065Z,13.40
2022-10-04T09:22:20.064Z,13.40
2022-10-04T09:25:23.402Z,13.30
2022-10-04T09:28:11.546Z,13.30
2022-10-04T09:30:58.291Z,13.20
2022-10-04T09:33:54.395Z,13.20
2022-10-04T09:36:52.955Z,13.10
2022-10-04T09:39:46.048Z,13.10
2022-10-04T09:42:52.738Z,13.10
2022-10-04T09:45:35.792Z,13.20
2022-10-04T09:48:38.187Z,13.20
2022-10-04T09:51:25.445Z,13.10
2022-10-04T09:54:20.102Z,13.10
2022-10-04T09:57:19.786Z,13.10
2022-10-04T10:00:13.467Z,13.10
2022-10-04T10:03:12.277Z,13.10
2022-10-04T10:06:00.899Z,13.20
2022-10-04T10:08:37.139Z,13.30
2022-10-04T10:11:32.529Z,13.40
2022-10-04T10:14:43.333Z,13.50
2022-10-04T10:17:17.677Z,13.70
2022-10-04T10:20:05.058Z,13.80
2022-10-04T10:23:18.643Z,13.90
2022-10-04T10:26:03.357Z,14.00
2022-10-04T10:29:06.624Z,13.90
2022-10-04T10:31:56.745Z,13.90
2022-10-04T10:34:52.612Z,14.10
2022-10-04T10:37:36.114Z,14.40
2022-10-04T10:40:34.162Z,14.70
2022-10-04T10:43:20.276Z,14.80
2022-10-04T10:46:07.890Z,14.70
2022-10-04T10:48:52.912Z,14.50
2022-10-04T10:51:49.232Z,14.60
2022-10-04T10:54:53.280Z,14.70
2022-10-04T10:57:54.564Z,14.80
2022-10-04T11:00:24.367Z,14.80
2022-10-04T11:03:32.092Z,15.00
2022-10-04T11:06:41.837Z,15.20
2022-10-04T11:09:35.235Z,15.20
2022-10-04T11:12:47.224Z,15.00
2022-10-04T11:15:41.591Z,14.70
2022-10-04T11:19:07.413Z,14.50
2022-10-04T11:22:13.311Z,14.50
2022-10-04T11:25:11.674Z,14.60
2022-10-04T11:27:52.548Z,14.40
2022-10-04T11:30:26.266Z,14.20
2022-10-04T11:33:46.308Z,14.10
2022-10-04T11:36:47.484Z,14.30
2022-10-04T11:39:48.293Z,14.50
2022-10-04T11:42:27.729Z,14.80
2022-10-04T11:45:19.884Z,14.90
2022-10-04T11:48:06.253Z,15.00
2022-10-04T11:51:12.407Z,15.20
2022-10-04T11:54:25.256Z,15.40
2022-10-04T11:57:10.187Z,15.50
2022-10-04T11:59:56.584Z,15.40
2022-10-04T12:02:47.444Z,15.40
2022-10-04T12:05:49.034Z,15.40
2022-10-04T12:08:41.637Z,15.30
2022-10-04T12:12:24.325Z,15.20
2022-10-04T12:15:17.421Z,15.20
2022-10-04T12:18:22.357Z,15.20
2022-10-04T12:21:09.744Z,15.10
2022-10-04T12:24:03.529Z,15.00
2022-10-04T12:27:08.098Z,14.90
2022-10-04T12:30:08.957Z,14.90
2022-10-04T12:32:44.954Z,15.00
2022-10-04T12:35:27.799Z,15.00
2022-10-04T12:38:23.887Z,15.10
2022-10-04T12:41:02.094Z,15.00
2022-10-04T12:43:38.443Z,15.00
2022-10-04T12:46:24.150Z,14.90
2022-10-04T12:49:11.020Z,14.90
2022-10-04T12:51:53.985Z,14.80
2022-10-04T12:54:35.691Z,14.80
2022-10-04T12:57:39.818Z,14.80
2022-10-04T13:00:19.479Z,14.60
2022-10-04T13:03:02.605Z,14.50
2022-10-04T13:05:38.910Z,14.60
2022-10-04T13:08:23.739Z,14.80
2022-10-04T13:11:20.822Z,14.90
2022-10-04T13:14:16.667Z,15.20
2022-10-04T13:19:53.141Z,15.00
2022-10-04T13:23:02.589Z,14.90
2022-10-04T13:26:01.233Z,14.90
2022-10-04T13:28:39.273Z,14.90
2022-10-04T13:31:24.612Z,15.00
2022-10-04T13:34:01.770Z,14.90
2022-10-04T13:36:42.944Z,14.90
2022-10-04T13:39:26.221Z,14.80
2022-10-04T13:42:12.528Z,14.80
2022-10-04T13:44:56.379Z,14.70
2022-10-04T13:47:44.932Z,14.60
2022-10-04T13:50:44.592Z,14.60
2022-10-04T13:53:54.069Z,14.60
2022-10-04T13:56:55.083Z,14.60
2022-10-04T13:59:35.072Z,14.60
2022-10-04T14:02:37.693Z,14.70
2022-10-04T14:05:39.533Z,14.60
2022-10-04T14:08:42.771Z,14.60
2022-10-04T14:11:38.312Z,14.60
2022-10-04T14:14:39.504Z,14.60
2022-10-04T14:17:34.332Z,14.60
2022-10-04T14:20:39.841Z,14.50
2022-10-04T14:23:26.387Z,14.50
2022-10-04T14:26:20.531Z,14.40
2022-10-04T14:29:15.742Z,14.30
2022-10-04T14:32:33.154Z,14.30
2022-10-04T14:35:07.327Z,14.20
2022-10-04T14:38:29.867Z,14.20
2022-10-04T14:41:45.509Z,14.10
2022-10-04T14:44:59.048Z,14.00
2022-10-04T14:48:19.798Z,14.00
2022-10-04T14:51:05.322Z,13.90
2022-10-04T14:53:38.241Z,13.90
2022-10-04T14:56:35.450Z,13.80
2022-10-04T14:59:20.031Z,13.80
2022-10-04T15:02:33.713Z,13.80
2022-10-04T15:05:37.778Z,13.80
2022-10-04T15:08:39.319Z,13.70
2022-10-04T15:11:09.699Z,13.70
2022-10-04T15:13:48.858Z,13.60
2022-10-04T15:16:24.234Z,13.60
2022-10-04T15:18:57.470Z,13.60
2022-10-04T15:21:53.079Z,13.50
2022-10-04T15:24:28.788Z,13.50
2022-10-04T15:27:46.679Z,13.50
2022-10-04T15:30:38.366Z,13.40
2022-10-04T15:33:21.164Z,13.30
2022-10-04T15:36:12.091Z,13.20
2022-10-04T15:38:53.866Z,13.10
2022-10-04T15:41:31.563Z,13.00
2022-10-04T15:44:26.167Z,12.90
2022-10-04T15:46:59.917Z,12.80
2022-10-04T15:49:49.634Z,12.80
2022-10-04T15:52:52.794Z,12.70
2022-10-04T15:55:52.462Z,12.70
2022-10-04T15:58:51.991Z,12.60
2022-10-04T16:01:51.254Z,12.50
2022-10-04T16:04:38.439Z,12.50
2022-10-04T16:07:32.311Z,12.50
2022-10-04T16:10:16.037Z,12.50
2022-10-04T16:13:14.198Z,12.40
2022-10-04T16:15:48.367Z,12.30
2022-10-04T16:18:46.230Z,12.30
2022-10-04T16:21:29.004Z,12.30
2022-10-04T16:24:30.657Z,12.20
2022-10-04T16:27:47.297Z,12.20
2022-10-04T16:30:27.394Z,12.10
2022-10-04T16:33:14.250Z,12.00
2022-10-04T16:35:47.092Z,11.90
2022-10-04T16:38:24.426Z,11.80
2022-10-04T16:41:09.530Z,11.70
2022-10-04T16:43:48.795Z,11.70
2022-10-04T16:46:30.469Z,11.60
2022-10-04T16:49:01.483Z,11.50
2022-10-04T16:51:41.296Z,11.40
2022-10-04T16:54:37.689Z,11.40
2022-10-04T16:57:23.084Z,11.30
2022-10-04T16:59:55.153Z,11.20
2022-10-04T17:02:38.271Z,11.10
2022-10-04T17:05:22.746Z,11.00
2022-10-04T17:08:10.943Z,11.00
2022-10-04T17:10:46.512Z,10.90
2022-10-04T17:13:24.801Z,10.80
2022-10-04T17:16:04.941Z,10.80
2022-10-04T17:18:47.866Z,10.70
2022-10-04T17:21:29.126Z,10.60
2022-10-04T17:24:19.493Z,10.60
2022-10-04T17:27:05.857Z,10.50
2022-10-04T17:29:49.078Z,10.50
2022-10-04T17:32:25.793Z,10.50
2022-10-04T17:35:09.139Z,10.40
2022-10-04T17:37:48.192Z,10.40
2022-10-04T17:40:34.695Z,10.30
2022-10-04T17:43:09.921Z,10.30
2022-10-04T17:46:07.570Z,10.20
2022-10-04T17:49:03.741Z,10.20
2022-10-04T17:51:59.549Z,10.10
2022-10-04T17:55:05.089Z,10.10
2022-10-04T17:57:42.262Z,10.10
2022-10-04T18:00:13.558Z,10.00
2022-10-04T18:03:03.063Z,10.00
2022-10-04T18:05:37.006Z,9.90
2022-10-04T18:08:17.874Z,9.90
2022-10-04T18:10:51.599Z,9.80
2022-10-04T18:13:29.693Z,9.80
2022-10-04T18:16:03.365Z,9.80
2022-10-04T18:18:39.624Z,9.80
2022-10-04T18:21:21.327Z,9.80
2022-10-04T18:23:58.471Z,9.80
2022-10-04T18:26:30.290Z,9.80
2022-10-04T18:29:02.220Z,9.70
2022-10-04T18:31:38.076Z,9.70
2022-10-04T18:34:28.241Z,9.60
2022-10-04T18:37:06.900Z,9.60
2022-10-04T18:39:48.754Z,9.60
2022-10-04T18:42:23.571Z,9.50
2022-10-04T18:45:00.228Z,9.50
2022-10-04T18:47:35.959Z,9.50
2022-10-04T18:50:17.060Z,9.40
2022-10-04T18:52:55.955Z,9.30
2022-10-04T18:55:34.772Z,9.30
2022-10-04T18:58:29.861Z,9.30
2022-10-04T19:01:30.146Z,9.20
2022-10-04T19:04:04.144Z,9.20
2022-10-04T19:06:35.440Z,9.20
2022-10-04T19:09:09.909Z,9.20
2022-10-04T19:11:46.546Z,9.10
2022-10-04T19:14:25.287Z,9.10
2022-10-04T19:17:00.222Z,9.00
2022-10-04T19:19:43.321Z,9.10
2022-10-04T19:22:25.634Z,9.00
2022-10-04T19:25:21.913Z,9.00
2022-10-04T19:27:58.804Z,8.90
2022-10-04T19:30:32.801Z,8.90
2022-10-04T19:33:15.392Z,8.90
2022-10-04T19:35:57.902Z,8.90
2022-10-04T19:38:40.418Z,8.90
2022-10-04T19:41:19.106Z,8.90
2022-10-04T19:43:56.636Z,8.90
2022-10-04T19:46:55.520Z,8.80
2022-10-04T19:49:40.692Z,8.80
2022-10-04T19:52:24.446Z,8.80
2022-10-04T19:54:59.136Z,8.70
2022-10-04T19:57:38.505Z,8.80
2022-10-04T20:00:13.659Z,8.70
2022-10-04T20:02:48.248Z,8.70
2022-10-04T20:05:20.250Z,8.70
2022-10-04T20:07:52.968Z,8.70
2022-10-04T20:10:33.160Z,8.70
2022-10-04T20:13:24.200Z,8.60
2022-10-04T20:15:58.931Z,8.60
2022-10-04T20:19:01.139Z,8.50
2022-10-04T20:21:32.954Z,8.60
2022-10-04T20:24:01.721Z,8.60
2022-10-04T20:26:56.148Z,8.60
2022-10-04T20:30:04.142Z,8.60
2022-10-04T20:32:58.355Z,8.50
2022-10-04T20:36:12.359Z,8.50
2022-10-04T20:38:54.260Z,8.50
2022-10-04T20:42:02.409Z,8.50
2022-10-04T20:44:59.161Z,8.50
2022-10-04T20:47:38.172Z,8.50
2022-10-04T20:50:22.886Z,8.40
2022-10-04T20:52:55.782Z,8.50
2022-10-04T20:55:28.244Z,8.50
2022-10-04T20:58:00.002Z,8.50
2022-10-04T21:00:33.785Z,8.50
2022-10-04T21:03:16.649Z,8.50
2022-10-04T21:05:59.505Z,8.50
2022-10-04T21:08:28.954Z,8.60
2022-10-04T21:11:08.770Z,8.50
2022-10-04T21:13:54.599Z,8.50
2022-10-04T21:16:44.659Z,8.40
2022-10-04T21:19:44.884Z,8.40
2022-10-04T21:22:36.617Z,8.40
2022-10-04T21:25:23.976Z,8.40
2022-10-04T21:27:52.345Z,8.40
2022-10-04T21:30:21.100Z,8.40
2022-10-04T21:32:49.378Z,8.30
2022-10-04T21:35:18.015Z,8.30
2022-10-04T21:37:47.715Z,8.30
2022-10-04T21:40:16.271Z,8.20
2022-10-04T21:42:44.596Z,8.20
2022-10-04T21:45:12.887Z,8.20
2022-10-04T21:47:41.323Z,8.20
2022-10-04T21:50:10.260Z,8.20
2022-10-04T21:52:38.410Z,8.10
2022-10-04T21:55:10.752Z,8.20
2022-10-04T21:57:39.132Z,8.10
2022-10-04T22:00:09.136Z,8.10
2022-10-04T22:02:55.795Z,8.10
2022-10-04T22:05:26.136Z,8.00
2022-10-04T22:07:54.493Z,8.00
2022-10-04T22:10:24.405Z,8.00
2022-10-04T22:13:03.122Z,8.00
2022-10-04T22:15:31.364Z,7.90
2022-10-04T22:18:00.744Z,7.90
2022-10-04T22:20:29.299Z,7.90
2022-10-04T22:22:58.071Z,7.90
2022-10-04T22:25:28.945Z,7.80
2022-10-04T22:27:59.250Z,7.90
2022-10-04T22:30:29.921Z,7.80
2022-10-04T22:33:00.076Z,7.80
2022-10-04T22:35:31.714Z,7.80
2022-10-04T22:38:01.448Z,7.80
2022-10-04T22:40:31.149Z,7.90
2022-10-04T22:43:01.078Z,7.80
2022-10-04T22:45:33.567Z,7.70
2022-10-04T22:48:08.546Z,7.80
2022-10-04T22:50:38.213Z,7.90
2022-10-04T22:53:13.357Z,8.00
2022-10-04T22:55:43.355Z,7.90
2022-10-04T22:58:13.907Z,7.90
2022-10-04T23:00:43.061Z,8.00
2022-10-04T23:03:25.578Z,7.90
2022-10-04T23:05:54.262Z,8.00
2022-10-04T23:08:23.152Z,8.00
2022-10-04T23:10:56.264Z,8.10
2022-10-04T23:13:25.394Z,8.00
2022-10-04T23:15:57.079Z,8.00
2022-10-04T23:18:25.323Z,8.10
2022-10-04T23:20:58.054Z,8.00
2022-10-04T23:23:29.263Z,8.00
2022-10-04T23:25:59.046Z,8.00
2022-10-04T23:28:27.437Z,8.00
2022-10-04T23:31:03.932Z,8.00
2022-10-04T23:33:32.168Z,8.00
2022-10-04T23:36:00.605Z,8.10
2022-10-04T23:38:31.589Z,8.10
2022-10-04T23:41:02.323Z,8.10
2022-10-04T23:43:32.289Z,8.10
2022-10-04T23:46:00.853Z,8.30
2022-10-04T23:48:32.346Z,8.10
2022-10-04T23:51:01.146Z,8.10
2022-10-04T23:53:32.052Z,8.20
2022-10-04T23:56:05.648Z,8.20
2022-10-04T23:58:36.907Z,8.20
